Pagrindinis puslapis
METAR-TAF:

METAR-TAF

Oro uostai :

Maskva, Rusija

platuma: 55-30-42N, ilguma: 037-30-26E, Aukštis: 173 m

Dabartinis oras

Ataskaita buvo paskelbta 36 minutes, ne 08:00 UTC
Vėjas 12 kt iš Vakarų
Temperatūra 14°C
Drėgmė 77%
Slėgis 1016 hPa
Matomumas 10 km arba daugiau
Su prošvaistėmis ne aukštis 1100 ft
Su prošvaistėmis ne aukštis 3300 ft

METAR: UUMO 180800Z 28006MPS 9999 BKN011 BKN033 14/10 Q1016 R26/290050 NOSIG RMK QFE746/0995

Laikas: 11:36 (08:36 UTC)

Prognozė

Ataskaita buvo paskelbta 3 valandos ir 59 minutes, ne 04:37 UTC
Prognozė galioja nuo 18 metu 06 UTC su 18 metu 15 UTC
Vėjas 10 kt iš Vakarų
Matomumas 10 km arba daugiau
Su prošvaistėmis ne aukštis 1300 ft
Laikinai
nuo 18 metu 06 UTC su 18 metu 12 UTC
Mažai debesys ne aukštis 600 ft
Su prošvaistėmis ne aukštis 1100 ft
lietus

TAF: UUMO 180437Z 1806/1815 27005MPS 9999 BKN013 TEMPO 1806/1812 -RA FEW006 BKN011

Orai ataskaitas ir orų prognozės (METAR, TAF).

turimą stotys yra geltonos ir raudonos taškus žemėlapyje.

Perkelti pele per norėdami pamatyti stoties vardą.

Tada spustelėkite, norėdami matyti oro stebėjimo ir prognozės.

Norėdami pakeisti žemėlapį: spustelėkite ant žalios mygtukų su juodo kryžiaus žemyn,; žalią mygtuką su brūkšneliu, jei norite nutolinti; arba žalių rodyklių gretimoms žemėlapius.


METAR-TAF: